Weather at Azraq Highway Strip

Public forecast

Using degrees Celsius for public forecast. Weather courtesy of forecast.io.

Closest aviation weather report (METAR) to Azraq Highway Strip

Closest report is Amman Civil (Marka International) Airport, 21.5 nm (39.8 km) W.

2023/11/30 00:00 (retrieved 41 minutes ago)

OJAM 300000Z 08003KT 8000 NSC 11/06 Q1021 NOSIG

Closest aviation forecast (TAF) to Azraq Highway Strip

Forecast is more than 12 hours old.

Closest forecast is Beirut Rafic Hariri International Airport, 117.3 nm (217.2 km) NNW.

2023/11/29 12:03 (retrieved 13 hours ago)

TAF TAF OLBA 291000Z 2912/3018 33010KT 8000 NSC BECMG 2918/2921 03014KT BECMG 3000/3003 09010KT BECMG 3006/3009 36010KT 7000 SCT035 SCT180